Home   Weather   Germany   Bad Vilbel   Past weeks
Flag for Germany

Past Weather in Bad Vilbel, Hesse, Germany — Yesterday and Last 2 Weeks

Currently: 54 °F. Sunny. (Weather station: Frankfurt-M-Flughafen Airport, Germany). See more current weather

Past Weather in Bad Vilbel — Graph

°F

Bad Vilbel Temperature Yesterday

Maximum temperature yesterday: 59 °F (at 3:20 pm)
Minimum temperature yesterday: 36 °F (at 3:50 am)
Average temperature yesterday: 45 °F

High & Low Weather Summary for the Past Weeks

 TemperatureHumidityPressure
High66 °F (Feb 23, 3:50 pm)100% (Feb 17, 1:50 am)30.69 "Hg (Feb 17, 1:50 am)
Low30 °F (Feb 18, 7:20 am)37% (Feb 25, 1:50 pm)29.83 "Hg (Feb 18, 6:50 pm)
Average44 °F77%30.31 "Hg
* Reported Feb 16 5:20 pm — Mar 3 5:20 pm, Bad Vilbel. Weather by CustomWeather, © 2021

Note: Actual official high and low records may vary slightly from our data, if they occured in-between our weather recording intervals... More about our weather records

Bad Vilbel Weather History for the Previous 24 Hours

Scroll right to see more
 ConditionsComfort  
Time TempWeatherWind HumidityBarometerVisibility
5:20 pm
Wed, Mar 3
55 °FSunny.1 mph55%30.30 "Hg10 mi
4:50 pm55 °FSunny.5 mph55%30.30 "Hg10 mi
4:20 pm55 °FPassing clouds.7 mph55%30.33 "HgN/A
3:50 pm57 °FPassing clouds.6 mph48%30.33 "HgN/A
3:20 pm57 °FPassing clouds.6 mph48%30.33 "HgN/A
2:50 pm57 °FPassing clouds.8 mph48%30.33 "HgN/A
2:20 pm55 °FPassing clouds.5 mph51%30.36 "HgN/A
1:50 pm55 °FPassing clouds.5 mph51%30.36 "HgN/A
1:20 pm54 °FPassing clouds.3 mph54%30.39 "HgN/A
12:50 pm52 °FPassing clouds.5 mph58%30.39 "HgN/A
12:20 pm50 °FSunny.7 mph62%30.39 "Hg10 mi
11:50 am48 °FPassing clouds.6 mph66%30.42 "HgN/A
11:20 am45 °FSunny.1 mph76%30.42 "Hg10 mi
10:50 am43 °FSunny.2 mph76%30.42 "Hg10 mi
10:20 am41 °FSunny.3 mph81%30.42 "Hg10 mi
9:50 am37 °FSunny.2 mph93%30.42 "Hg10 mi
9:20 am36 °FSunny.3 mph93%30.42 "Hg10 mi
8:50 am34 °FPassing clouds.3 mph93%30.42 "HgN/A
8:20 am32 °FSunny.2 mph93%30.42 "Hg10 mi
7:50 am30 °FPassing clouds.3 mph93%30.42 "HgN/A
7:20 am32 °FPassing clouds.3 mph93%30.42 "HgN/A
6:50 am32 °FClear.2 mph93%30.42 "Hg10 mi
6:20 am32 °FClear.1 mph93%30.42 "Hg10 mi
5:50 am32 °FClear.1 mph93%30.42 "Hg10 mi
5:20 am36 °FPassing clouds.3 mph93%30.42 "HgN/A
4:50 am34 °FClear.5 mph93%30.42 "Hg10 mi
4:20 am32 °FClear.2 mph93%30.42 "Hg10 mi
3:50 am32 °FClear.1 mph93%30.42 "Hg10 mi
3:20 am32 °FClear.2 mph93%30.42 "Hg10 mi
2:50 am32 °FClear.1 mph93%30.42 "Hg10 mi
2:20 am34 °FClear.1 mph93%30.45 "Hg10 mi
1:50 am34 °FClear.1 mph93%30.45 "Hg10 mi
1:20 am36 °FClear.3 mph93%30.45 "Hg10 mi
12:50 am37 °FClear.2 mph87%30.45 "Hg10 mi
12:20 am39 °FClear.2 mph81%30.45 "Hg10 mi
11:50 pm
Tue, Mar 2
37 °FClear.3 mph87%30.45 "Hg10 mi
11:20 pm37 °FClear.1 mph87%30.45 "Hg10 mi
10:50 pm39 °FClear.3 mph81%30.45 "Hg10 mi
10:20 pm39 °FClear.5 mph81%30.45 "Hg10 mi
9:50 pm39 °FClear.1 mph81%30.45 "Hg10 mi
9:20 pm39 °FClear.2 mph81%30.45 "Hg10 mi
8:50 pm41 °FClear.1 mph76%30.45 "Hg10 mi
8:20 pm41 °FClear.1 mph76%30.45 "Hg10 mi
7:50 pm43 °FClear.1 mph76%30.45 "Hg10 mi
7:20 pm45 °FClear.3 mph71%30.45 "Hg10 mi
6:50 pm48 °FClear.2 mph62%30.45 "Hg10 mi
6:20 pm50 °FClear.3 mph58%30.42 "Hg10 mi
Weather by CustomWeather, © 2021

See weather overview